sensor_id;sensor_type;location;lat;lon;timestamp;P1;durP1;ratioP1;P2;durP2;ratioP2
2712;SDS011;1366;47.988;7.856;2022-10-16T04:02:38;2.00;;;1.80;;
2712;SDS011;1366;47.988;7.856;2022-10-16T04:05:04;4.23;;;1.70;;
2712;SDS011;1366;47.988;7.856;2022-10-16T04:07:31;3.33;;;2.70;;
2712;SDS011;1366;47.988;7.856;2022-10-16T04:09:57;3.73;;;2.40;;
2712;SDS011;1366;47.988;7.856;2022-10-16T04:12:24;1.83;;;1.73;;
2712;SDS011;1366;47.988;7.856;2022-10-16T04:14:50;3.00;;;2.10;;
2712;SDS011;1366;47.988;7.856;2022-10-16T04:17:16;2.90;;;1.83;;
2712;SDS011;1366;47.988;7.856;2022-10-16T04:19:42;3.87;;;2.40;;
2712;SDS011;1366;47.988;7.856;2022-10-16T04:22:08;2.60;;;1.90;;
2712;SDS011;1366;47.988;7.856;2022-10-16T04:24:34;2.23;;;2.13;;
2712;SDS011;1366;47.988;7.856;2022-10-16T04:27:00;2.77;;;1.93;;
2712;SDS011;1366;47.988;7.856;2022-10-16T04:29:27;3.07;;;2.30;;
2712;SDS011;1366;47.988;7.856;2022-10-16T04:31:53;2.27;;;2.10;;
2712;SDS011;1366;47.988;7.856;2022-10-16T04:34:19;2.13;;;1.80;;
2712;SDS011;1366;47.988;7.856;2022-10-16T04:36:47;5.80;;;2.33;;
2712;SDS011;1366;47.988;7.856;2022-10-16T04:39:14;5.10;;;2.20;;
2712;SDS011;1366;47.988;7.856;2022-10-16T04:41:40;2.93;;;2.00;;
2712;SDS011;1366;47.988;7.856;2022-10-16T04:44:06;2.57;;;2.10;;
2712;SDS011;1366;47.988;7.856;2022-10-16T04:46:33;2.93;;;2.00;;
2712;SDS011;1366;47.988;7.856;2022-10-16T04:48:59;4.27;;;2.23;;
2712;SDS011;1366;47.988;7.856;2022-10-16T04:51:25;4.17;;;2.53;;
2712;SDS011;1366;47.988;7.856;2022-10-16T04:53:52;2.43;;;2.23;;
2712;SDS011;1366;47.988;7.856;2022-10-16T04:56:19;3.00;;;2.10;;
2712;SDS011;1366;47.988;7.856;2022-10-16T04:58:46;3.03;;;2.20;;
2712;SDS011;1366;47.988;7.856;2022-10-16T05:01:12;4.60;;;2.30;;
2712;SDS011;1366;47.988;7.856;2022-10-16T05:03:38;6.50;;;2.37;;
2712;SDS011;1366;47.988;7.856;2022-10-16T05:06:07;2.50;;;2.20;;
2712;SDS011;1366;47.988;7.856;2022-10-16T05:08:33;2.50;;;2.30;;
2712;SDS011;1366;47.988;7.856;2022-10-16T05:10:59;2.37;;;2.00;;
2712;SDS011;1366;47.988;7.856;2022-10-16T05:13:26;3.53;;;2.30;;
2712;SDS011;1366;47.988;7.856;2022-10-16T05:15:52;3.43;;;2.03;;
2712;SDS011;1366;47.988;7.856;2022-10-16T05:18:18;2.23;;;2.03;;
2712;SDS011;1366;47.988;7.856;2022-10-16T05:20:44;1.83;;;1.70;;
2712;SDS011;1366;47.988;7.856;2022-10-16T05:23:11;2.87;;;2.43;;
2712;SDS011;1366;47.988;7.856;2022-10-16T05:25:37;5.13;;;2.30;;
2712;SDS011;1366;47.988;7.856;2022-10-16T05:28:03;2.30;;;2.20;;
2712;SDS011;1366;47.988;7.856;2022-10-16T05:30:29;2.37;;;2.13;;
2712;SDS011;1366;47.988;7.856;2022-10-16T05:32:55;2.30;;;2.10;;
2712;SDS011;1366;47.988;7.856;2022-10-16T05:35:21;3.00;;;2.17;;
2712;SDS011;1366;47.988;7.856;2022-10-16T05:37:47;2.63;;;2.43;;
2712;SDS011;1366;47.988;7.856;2022-10-16T05:40:14;3.73;;;2.50;;
2712;SDS011;1366;47.988;7.856;2022-10-16T05:42:41;2.73;;;2.40;;
2712;SDS011;1366;47.988;7.856;2022-10-16T05:45:08;2.57;;;2.37;;
2712;SDS011;1366;47.988;7.856;2022-10-16T05:47:35;2.77;;;2.50;;
2712;SDS011;1366;47.988;7.856;2022-10-16T05:50:01;4.47;;;2.30;;
2712;SDS011;1366;47.988;7.856;2022-10-16T05:52:29;2.80;;;2.47;;
2712;SDS011;1366;47.988;7.856;2022-10-16T05:54:55;2.70;;;2.50;;
2712;SDS011;1366;47.988;7.856;2022-10-16T05:57:21;3.97;;;2.50;;
2712;SDS011;1366;47.988;7.856;2022-10-16T05:59:47;3.87;;;2.57;;
2712;SDS011;1366;47.988;7.856;2022-10-16T06:02:13;2.20;;;2.10;;
2712;SDS011;1366;47.988;7.856;2022-10-16T06:04:39;2.00;;;1.90;;
2712;SDS011;1366;47.988;7.856;2022-10-16T06:07:05;2.10;;;2.00;;
2712;SDS011;1366;47.988;7.856;2022-10-16T06:09:31;3.50;;;2.33;;
2712;SDS011;1366;47.988;7.856;2022-10-16T06:11:57;3.83;;;2.50;;
2712;SDS011;1366;47.988;7.856;2022-10-16T06:14:23;2.73;;;2.50;;
2712;SDS011;1366;47.988;7.856;2022-10-16T06:16:49;3.40;;;2.30;;
2712;SDS011;1366;47.988;7.856;2022-10-16T06:19:16;2.90;;;2.50;;
2712;SDS011;1366;47.988;7.856;2022-10-16T06:21:43;2.50;;;2.30;;
2712;SDS011;1366;47.988;7.856;2022-10-16T06:24:09;3.17;;;2.50;;
2712;SDS011;1366;47.988;7.856;2022-10-16T06:26:35;2.67;;;2.47;;
2712;SDS011;1366;47.988;7.856;2022-10-16T06:29:03;2.87;;;2.63;;
2712;SDS011;1366;47.988;7.856;2022-10-16T06:31:29;3.97;;;2.37;;
2712;SDS011;1366;47.988;7.856;2022-10-16T06:33:58;2.83;;;2.30;;
2712;SDS011;1366;47.988;7.856;2022-10-16T06:36:24;2.80;;;2.60;;
2712;SDS011;1366;47.988;7.856;2022-10-16T06:38:51;3.00;;;2.70;;
2712;SDS011;1366;47.988;7.856;2022-10-16T06:41:18;2.97;;;2.67;;
2712;SDS011;1366;47.988;7.856;2022-10-16T06:43:44;7.20;;;3.63;;
2712;SDS011;1366;47.988;7.856;2022-10-16T06:46:11;3.73;;;2.77;;
2712;SDS011;1366;47.988;7.856;2022-10-16T06:48:37;3.60;;;3.03;;
2712;SDS011;1366;47.988;7.856;2022-10-16T06:51:05;2.77;;;2.57;;
2712;SDS011;1366;47.988;7.856;2022-10-16T06:53:35;2.40;;;2.20;;
2712;SDS011;1366;47.988;7.856;2022-10-16T06:58:33;2.60;;;2.40;;
2712;SDS011;1366;47.988;7.856;2022-10-16T07:00:59;4.67;;;2.70;;
2712;SDS011;1366;47.988;7.856;2022-10-16T07:03:25;2.97;;;2.63;;
2712;SDS011;1366;47.988;7.856;2022-10-16T07:05:51;3.33;;;3.03;;
2712;SDS011;1366;47.988;7.856;2022-10-16T07:08:17;3.30;;;2.70;;
2712;SDS011;1366;47.988;7.856;2022-10-16T07:10:43;5.17;;;3.53;;
2712;SDS011;1366;47.988;7.856;2022-10-16T07:13:10;3.40;;;2.83;;
2712;SDS011;1366;47.988;7.856;2022-10-16T07:15:38;3.07;;;2.77;;
2712;SDS011;1366;47.988;7.856;2022-10-16T07:18:04;3.30;;;3.00;;
2712;SDS011;1366;47.988;7.856;2022-10-16T07:20:30;4.27;;;2.93;;
2712;SDS011;1366;47.988;7.856;2022-10-16T07:22:57;4.73;;;2.40;;
2712;SDS011;1366;47.988;7.856;2022-10-16T07:25:23;4.50;;;2.53;;
2712;SDS011;1366;47.988;7.856;2022-10-16T07:27:49;3.17;;;2.87;;
2712;SDS011;1366;47.988;7.856;2022-10-16T07:30:15;3.60;;;3.20;;
2712;SDS011;1366;47.988;7.856;2022-10-16T07:32:41;3.00;;;2.80;;
2712;SDS011;1366;47.988;7.856;2022-10-16T07:35:07;3.10;;;2.83;;
2712;SDS011;1366;47.988;7.856;2022-10-16T07:37:33;4.63;;;2.50;;
2712;SDS011;1366;47.988;7.856;2022-10-16T07:39:59;3.87;;;2.90;;
2712;SDS011;1366;47.988;7.856;2022-10-16T07:42:26;2.63;;;2.40;;
2712;SDS011;1366;47.988;7.856;2022-10-16T07:44:53;4.90;;;2.90;;
2712;SDS011;1366;47.988;7.856;2022-10-16T07:47:19;3.30;;;3.00;;
2712;SDS011;1366;47.988;7.856;2022-10-16T07:49:45;5.50;;;3.33;;
2712;SDS011;1366;47.988;7.856;2022-10-16T07:52:11;3.23;;;3.03;;
2712;SDS011;1366;47.988;7.856;2022-10-16T07:54:37;3.50;;;2.50;;
2712;SDS011;1366;47.988;7.856;2022-10-16T07:57:03;4.20;;;3.10;;
2712;SDS011;1366;47.988;7.856;2022-10-16T07:59:29;2.90;;;2.70;;
2712;SDS011;1366;47.988;7.856;2022-10-16T08:01:56;3.47;;;3.17;;
2712;SDS011;1366;47.988;7.856;2022-10-16T08:04:22;3.60;;;3.30;;
2712;SDS011;1366;47.988;7.856;2022-10-16T08:06:48;6.07;;;3.10;;
2712;SDS011;1366;47.988;7.856;2022-10-16T08:09:14;3.30;;;3.00;;
2712;SDS011;1366;47.988;7.856;2022-10-16T08:11:40;2.90;;;2.77;;
2712;SDS011;1366;47.988;7.856;2022-10-16T08:14:06;6.63;;;3.23;;
2712;SDS011;1366;47.988;7.856;2022-10-16T08:16:33;5.93;;;2.80;;
2712;SDS011;1366;47.988;7.856;2022-10-16T08:18:59;4.13;;;2.57;;
2712;SDS011;1366;47.988;7.856;2022-10-16T08:21:25;2.93;;;2.67;;
2712;SDS011;1366;47.988;7.856;2022-10-16T08:23:52;5.87;;;5.03;;
2712;SDS011;1366;47.988;7.856;2022-10-16T08:26:19;2.93;;;2.60;;
2712;SDS011;1366;47.988;7.856;2022-10-16T08:28:46;3.33;;;2.73;;
2712;SDS011;1366;47.988;7.856;2022-10-16T08:31:15;4.00;;;2.47;;
2712;SDS011;1366;47.988;7.856;2022-10-16T08:33:42;2.87;;;2.67;;
2712;SDS011;1366;47.988;7.856;2022-10-16T08:36:09;4.23;;;3.23;;
2712;SDS011;1366;47.988;7.856;2022-10-16T08:38:35;4.13;;;3.10;;
2712;SDS011;1366;47.988;7.856;2022-10-16T08:44:02;3.53;;;2.67;;
2712;SDS011;1366;47.988;7.856;2022-10-16T08:49:01;4.87;;;3.20;;
2712;SDS011;1366;47.988;7.856;2022-10-16T08:51:32;6.80;;;3.10;;
2712;SDS011;1366;47.988;7.856;2022-10-16T08:53:59;5.73;;;3.37;;
2712;SDS011;1366;47.988;7.856;2022-10-16T08:56:27;3.77;;;2.83;;
2712;SDS011;1366;47.988;7.856;2022-10-16T08:58:53;3.67;;;3.37;;
2712;SDS011;1366;47.988;7.856;2022-10-16T09:01:21;4.30;;;3.67;;
2712;SDS011;1366;47.988;7.856;2022-10-16T09:06:23;3.80;;;3.40;;
2712;SDS011;1366;47.988;7.856;2022-10-16T09:08:58;4.50;;;3.40;;
2712;SDS011;1366;47.988;7.856;2022-10-16T09:14:07;4.20;;;3.30;;
2712;SDS011;1366;47.988;7.856;2022-10-16T09:16:41;4.33;;;3.00;;
2712;SDS011;1366;47.988;7.856;2022-10-16T09:19:12;4.00;;;3.60;;
2712;SDS011;1366;47.988;7.856;2022-10-16T09:21:42;3.83;;;3.20;;
2712;SDS011;1366;47.988;7.856;2022-10-16T09:24:16;6.13;;;3.60;;
2712;SDS011;1366;47.988;7.856;2022-10-16T09:26:43;4.23;;;3.70;;
2712;SDS011;1366;47.988;7.856;2022-10-16T09:29:16;3.60;;;3.30;;
2712;SDS011;1366;47.988;7.856;2022-10-16T09:31:45;7.43;;;3.47;;
2712;SDS011;1366;47.988;7.856;2022-10-16T09:34:16;4.63;;;3.60;;
2712;SDS011;1366;47.988;7.856;2022-10-16T09:36:44;6.10;;;3.30;;
2712;SDS011;1366;47.988;7.856;2022-10-16T09:39:11;3.00;;;2.77;;
2712;SDS011;1366;47.988;7.856;2022-10-16T09:41:38;2.77;;;2.57;;
2712;SDS011;1366;47.988;7.856;2022-10-16T09:44:06;5.53;;;3.23;;
2712;SDS011;1366;47.988;7.856;2022-10-16T09:46:40;3.30;;;2.83;;
2712;SDS011;1366;47.988;7.856;2022-10-16T09:49:22;2.83;;;2.63;;
2712;SDS011;1366;47.988;7.856;2022-10-16T09:51:49;6.23;;;2.93;;
2712;SDS011;1366;47.988;7.856;2022-10-16T09:54:18;3.60;;;2.50;;
2712;SDS011;1366;47.988;7.856;2022-10-16T09:56:44;2.60;;;2.50;;
2712;SDS011;1366;47.988;7.856;2022-10-16T09:59:21;2.83;;;2.60;;
2712;SDS011;1366;47.988;7.856;2022-10-16T10:01:52;7.23;;;2.80;;
2712;SDS011;1366;47.988;7.856;2022-10-16T10:04:19;5.73;;;2.57;;
2712;SDS011;1366;47.988;7.856;2022-10-16T10:06:46;2.47;;;2.30;;
2712;SDS011;1366;47.988;7.856;2022-10-16T10:09:17;2.77;;;2.10;;
2712;SDS011;1366;47.988;7.856;2022-10-16T10:11:45;5.80;;;2.63;;
2712;SDS011;1366;47.988;7.856;2022-10-16T10:14:15;3.20;;;2.17;;
2712;SDS011;1366;47.988;7.856;2022-10-16T10:16:42;2.57;;;2.47;;
2712;SDS011;1366;47.988;7.856;2022-10-16T10:19:19;2.80;;;2.57;;
2712;SDS011;1366;47.988;7.856;2022-10-16T10:21:45;2.50;;;2.30;;
2712;SDS011;1366;47.988;7.856;2022-10-16T10:24:12;3.20;;;2.23;;
2712;SDS011;1366;47.988;7.856;2022-10-16T10:26:39;2.50;;;2.30;;
2712;SDS011;1366;47.988;7.856;2022-10-16T10:29:08;4.43;;;2.03;;
2712;SDS011;1366;47.988;7.856;2022-10-16T10:36:40;2.30;;;2.10;;
2712;SDS011;1366;47.988;7.856;2022-10-16T10:41:57;2.43;;;2.23;;
2712;SDS011;1366;47.988;7.856;2022-10-16T11:05:43;3.53;;;2.40;;
2712;SDS011;1366;47.988;7.856;2022-10-16T11:08:12;2.30;;;2.10;;
2712;SDS011;1366;47.988;7.856;2022-10-16T11:10:44;2.57;;;2.37;;
2712;SDS011;1366;47.988;7.856;2022-10-16T11:13:30;3.33;;;2.10;;
2712;SDS011;1366;47.988;7.856;2022-10-16T11:15:58;2.10;;;2.00;;
2712;SDS011;1366;47.988;7.856;2022-10-16T11:18:47;3.27;;;1.80;;
2712;SDS011;1366;47.988;7.856;2022-10-16T11:21:12;3.10;;;2.00;;
2712;SDS011;1366;47.988;7.856;2022-10-16T11:23:42;6.10;;;2.17;;
2712;SDS011;1366;47.988;7.856;2022-10-16T11:26:18;2.60;;;2.03;;
2712;SDS011;1366;47.988;7.856;2022-10-16T11:28:47;2.60;;;2.20;;
2712;SDS011;1366;47.988;7.856;2022-10-16T11:33:51;2.20;;;2.00;;
2712;SDS011;1366;47.988;7.856;2022-10-16T11:36:23;2.40;;;2.20;;
2712;SDS011;1366;47.988;7.856;2022-10-16T11:38:55;3.20;;;2.17;;
2712;SDS011;1366;47.988;7.856;2022-10-16T11:41:27;2.90;;;2.70;;
2712;SDS011;1366;47.988;7.856;2022-10-16T11:46:26;2.20;;;2.10;;
2712;SDS011;1366;47.988;7.856;2022-10-16T11:49:03;2.10;;;2.00;;
2712;SDS011;1366;47.988;7.856;2022-10-16T11:54:02;2.50;;;2.30;;
2712;SDS011;1366;47.988;7.856;2022-10-16T11:56:30;2.37;;;1.90;;
2712;SDS011;1366;47.988;7.856;2022-10-16T11:58:59;3.57;;;2.60;;
2712;SDS011;1366;47.988;7.856;2022-10-16T12:01:28;2.60;;;2.43;;
2712;SDS011;1366;47.988;7.856;2022-10-16T12:08:54;4.07;;;2.00;;
2712;SDS011;1366;47.988;7.856;2022-10-16T12:14:59;2.13;;;1.87;;
2712;SDS011;1366;47.988;7.856;2022-10-16T12:16:53;4.10;;;2.30;;
2712;SDS011;1366;47.988;7.856;2022-10-16T12:19:20;2.23;;;2.00;;
2712;SDS011;1366;47.988;7.856;2022-10-16T12:21:46;2.03;;;1.93;;
2712;SDS011;1366;47.988;7.856;2022-10-16T12:26:52;2.30;;;2.20;;
2712;SDS011;1366;47.988;7.856;2022-10-16T12:31:47;2.07;;;1.97;;
2712;SDS011;1366;47.988;7.856;2022-10-16T12:34:19;2.00;;;1.80;;
2712;SDS011;1366;47.988;7.856;2022-10-16T12:36:47;2.37;;;2.27;;
2712;SDS011;1366;47.988;7.856;2022-10-16T12:39:23;2.67;;;2.47;;
2712;SDS011;1366;47.988;7.856;2022-10-16T12:42:03;2.80;;;2.17;;
2712;SDS011;1366;47.988;7.856;2022-10-16T12:44:33;2.70;;;2.40;;
2712;SDS011;1366;47.988;7.856;2022-10-16T12:46:59;2.17;;;2.07;;
2712;SDS011;1366;47.988;7.856;2022-10-16T12:49:30;2.63;;;2.43;;
2712;SDS011;1366;47.988;7.856;2022-10-16T12:51:56;2.20;;;2.10;;
2712;SDS011;1366;47.988;7.856;2022-10-16T12:54:29;2.13;;;2.03;;
2712;SDS011;1366;47.988;7.856;2022-10-16T13:08:15;3.17;;;2.17;;
2712;SDS011;1366;47.988;7.856;2022-10-16T13:10:26;2.67;;;2.47;;
2712;SDS011;1366;47.988;7.856;2022-10-16T13:18:16;2.50;;;2.20;;
2712;SDS011;1366;47.988;7.856;2022-10-16T13:23:31;2.83;;;2.10;;
2712;SDS011;1366;47.988;7.856;2022-10-16T13:28:28;2.30;;;2.20;;
2712;SDS011;1366;47.988;7.856;2022-10-16T13:30:57;2.27;;;2.00;;
2712;SDS011;1366;47.988;7.856;2022-10-16T13:36:01;3.23;;;2.70;;
2712;SDS011;1366;47.988;7.856;2022-10-16T13:38:31;2.60;;;2.40;;
2712;SDS011;1366;47.988;7.856;2022-10-16T13:40:59;2.23;;;2.13;;
2712;SDS011;1366;47.988;7.856;2022-10-16T13:46:11;2.30;;;2.20;;
2712;SDS011;1366;47.988;7.856;2022-10-16T13:48:38;2.70;;;2.50;;
2712;SDS011;1366;47.988;7.856;2022-10-16T13:51:05;2.07;;;1.97;;
2712;SDS011;1366;47.988;7.856;2022-10-16T13:53:35;2.80;;;2.60;;
2712;SDS011;1366;47.988;7.856;2022-10-16T13:56:05;2.80;;;2.43;;
2712;SDS011;1366;47.988;7.856;2022-10-16T13:58:32;3.60;;;2.30;;
2712;SDS011;1366;47.988;7.856;2022-10-16T14:00:59;2.50;;;2.30;;
2712;SDS011;1366;47.988;7.856;2022-10-16T14:03:27;4.80;;;2.33;;
2712;SDS011;1366;47.988;7.856;2022-10-16T14:05:54;3.50;;;2.33;;
2712;SDS011;1366;47.988;7.856;2022-10-16T14:08:21;2.10;;;2.00;;
2712;SDS011;1366;47.988;7.856;2022-10-16T14:10:48;2.33;;;2.10;;
2712;SDS011;1366;47.988;7.856;2022-10-16T14:13:17;2.57;;;2.37;;
2712;SDS011;1366;47.988;7.856;2022-10-16T14:15:46;2.50;;;2.30;;
2712;SDS011;1366;47.988;7.856;2022-10-16T14:18:15;2.60;;;2.40;;
2712;SDS011;1366;47.988;7.856;2022-10-16T14:20:44;2.70;;;2.50;;
2712;SDS011;1366;47.988;7.856;2022-10-16T14:23:29;6.50;;;2.57;;
2712;SDS011;1366;47.988;7.856;2022-10-16T14:29:01;2.90;;;2.13;;
2712;SDS011;1366;47.988;7.856;2022-10-16T14:31:30;2.40;;;2.20;;
2712;SDS011;1366;47.988;7.856;2022-10-16T14:33:56;2.40;;;2.20;;
2712;SDS011;1366;47.988;7.856;2022-10-16T14:36:23;2.50;;;2.40;;
2712;SDS011;1366;47.988;7.856;2022-10-16T14:39:05;2.20;;;2.10;;
2712;SDS011;1366;47.988;7.856;2022-10-16T14:41:33;3.13;;;2.17;;
2712;SDS011;1366;47.988;7.856;2022-10-16T14:44:06;2.60;;;2.50;;
2712;SDS011;1366;47.988;7.856;2022-10-16T14:51:37;2.50;;;2.30;;
2712;SDS011;1366;47.988;7.856;2022-10-16T14:54:07;2.50;;;2.30;;
2712;SDS011;1366;47.988;7.856;2022-10-16T14:56:35;2.90;;;2.40;;
2712;SDS011;1366;47.988;7.856;2022-10-16T14:59:07;2.70;;;2.50;;
2712;SDS011;1366;47.988;7.856;2022-10-16T15:01:38;4.70;;;3.00;;
2712;SDS011;1366;47.988;7.856;2022-10-16T15:04:04;2.30;;;2.20;;
2712;SDS011;1366;47.988;7.856;2022-10-16T15:06:30;2.50;;;2.20;;
2712;SDS011;1366;47.988;7.856;2022-10-16T15:08:56;3.67;;;2.47;;
2712;SDS011;1366;47.988;7.856;2022-10-16T15:11:22;2.50;;;2.40;;
2712;SDS011;1366;47.988;7.856;2022-10-16T15:13:48;3.77;;;2.30;;
2712;SDS011;1366;47.988;7.856;2022-10-16T15:16:15;2.60;;;2.50;;
2712;SDS011;1366;47.988;7.856;2022-10-16T15:18:41;2.80;;;2.40;;
2712;SDS011;1366;47.988;7.856;2022-10-16T15:21:07;2.60;;;2.40;;
2712;SDS011;1366;47.988;7.856;2022-10-16T15:23:33;2.60;;;2.40;;
2712;SDS011;1366;47.988;7.856;2022-10-16T15:26:00;2.17;;;2.00;;
2712;SDS011;1366;47.988;7.856;2022-10-16T15:28:26;2.97;;;2.70;;
2712;SDS011;1366;47.988;7.856;2022-10-16T15:30:53;2.50;;;2.30;;
2712;SDS011;1366;47.988;7.856;2022-10-16T15:33:24;2.70;;;2.50;;
2712;SDS011;1366;47.988;7.856;2022-10-16T15:35:52;2.60;;;2.40;;
2712;SDS011;1366;47.988;7.856;2022-10-16T15:38:19;3.10;;;2.43;;
2712;SDS011;1366;47.988;7.856;2022-10-16T15:40:46;2.80;;;2.60;;
2712;SDS011;1366;47.988;7.856;2022-10-16T15:43:12;2.90;;;2.50;;
2712;SDS011;1366;47.988;7.856;2022-10-16T15:45:38;2.87;;;2.57;;
2712;SDS011;1366;47.988;7.856;2022-10-16T15:48:04;2.87;;;2.67;;
2712;SDS011;1366;47.988;7.856;2022-10-16T15:50:31;4.87;;;2.63;;
2712;SDS011;1366;47.988;7.856;2022-10-16T15:52:57;6.60;;;3.33;;
2712;SDS011;1366;47.988;7.856;2022-10-16T15:55:23;4.40;;;2.53;;
2712;SDS011;1366;47.988;7.856;2022-10-16T15:57:49;3.07;;;2.87;;
2712;SDS011;1366;47.988;7.856;2022-10-16T16:00:17;3.07;;;2.80;;
2712;SDS011;1366;47.988;7.856;2022-10-16T16:02:50;4.70;;;3.43;;
2712;SDS011;1366;47.988;7.856;2022-10-16T16:05:16;4.80;;;2.63;;
2712;SDS011;1366;47.988;7.856;2022-10-16T16:07:43;5.93;;;3.73;;
2712;SDS011;1366;47.988;7.856;2022-10-16T16:10:09;7.97;;;3.70;;
2712;SDS011;1366;47.988;7.856;2022-10-16T16:12:36;4.93;;;3.27;;
2712;SDS011;1366;47.988;7.856;2022-10-16T16:15:02;5.00;;;3.30;;
2712;SDS011;1366;47.988;7.856;2022-10-16T16:20:01;6.47;;;4.00;;
2712;SDS011;1366;47.988;7.856;2022-10-16T16:22:27;5.60;;;3.90;;
2712;SDS011;1366;47.988;7.856;2022-10-16T16:24:53;9.60;;;4.33;;
2712;SDS011;1366;47.988;7.856;2022-10-16T16:27:19;4.20;;;3.57;;
2712;SDS011;1366;47.988;7.856;2022-10-16T16:29:46;9.87;;;5.30;;
2712;SDS011;1366;47.988;7.856;2022-10-16T16:32:12;4.33;;;3.93;;
2712;SDS011;1366;47.988;7.856;2022-10-16T16:34:38;4.37;;;3.97;;
2712;SDS011;1366;47.988;7.856;2022-10-16T16:37:04;4.20;;;3.40;;
2712;SDS011;1366;47.988;7.856;2022-10-16T16:39:30;5.63;;;3.90;;
2712;SDS011;1366;47.988;7.856;2022-10-16T16:41:56;4.90;;;3.23;;
2712;SDS011;1366;47.988;7.856;2022-10-16T16:44:27;4.10;;;3.70;;
2712;SDS011;1366;47.988;7.856;2022-10-16T16:46:53;7.73;;;4.93;;
2712;SDS011;1366;47.988;7.856;2022-10-16T16:49:19;4.50;;;4.10;;
2712;SDS011;1366;47.988;7.856;2022-10-16T16:51:45;5.83;;;4.03;;
2712;SDS011;1366;47.988;7.856;2022-10-16T16:54:12;6.80;;;5.00;;
2712;SDS011;1366;47.988;7.856;2022-10-16T16:56:38;6.17;;;4.60;;
2712;SDS011;1366;47.988;7.856;2022-10-16T16:59:10;5.00;;;4.50;;
2712;SDS011;1366;47.988;7.856;2022-10-16T17:01:37;6.00;;;4.70;;
2712;SDS011;1366;47.988;7.856;2022-10-16T17:04:03;4.43;;;4.03;;
2712;SDS011;1366;47.988;7.856;2022-10-16T17:06:30;5.90;;;4.87;;
2712;SDS011;1366;47.988;7.856;2022-10-16T17:08:57;5.30;;;4.43;;
2712;SDS011;1366;47.988;7.856;2022-10-16T17:11:25;4.43;;;3.83;;
2712;SDS011;1366;47.988;7.856;2022-10-16T17:13:51;8.33;;;6.53;;
2712;SDS011;1366;47.988;7.856;2022-10-16T17:16:19;6.83;;;4.50;;
2712;SDS011;1366;47.988;7.856;2022-10-16T17:18:45;5.63;;;4.53;;
2712;SDS011;1366;47.988;7.856;2022-10-16T17:21:11;4.30;;;3.90;;
2712;SDS011;1366;47.988;7.856;2022-10-16T17:23:37;6.30;;;3.80;;
2712;SDS011;1366;47.988;7.856;2022-10-16T17:28:30;4.50;;;3.50;;
2712;SDS011;1366;47.988;7.856;2022-10-16T17:30:56;5.00;;;3.90;;
2712;SDS011;1366;47.988;7.856;2022-10-16T17:33:22;3.70;;;3.30;;
2712;SDS011;1366;47.988;7.856;2022-10-16T17:35:48;4.67;;;3.63;;
2712;SDS011;1366;47.988;7.856;2022-10-16T17:38:14;6.53;;;3.50;;
2712;SDS011;1366;47.988;7.856;2022-10-16T17:40:40;7.10;;;3.90;;
2712;SDS011;1366;47.988;7.856;2022-10-16T17:43:07;12.30;;;4.53;;
2712;SDS011;1366;47.988;7.856;2022-10-16T17:45:36;7.60;;;5.10;;
2712;SDS011;1366;47.988;7.856;2022-10-16T17:48:03;5.93;;;4.57;;
2712;SDS011;1366;47.988;7.856;2022-10-16T17:50:29;3.93;;;3.60;;
2712;SDS011;1366;47.988;7.856;2022-10-16T17:52:55;8.10;;;3.40;;
2712;SDS011;1366;47.988;7.856;2022-10-16T17:55:21;6.27;;;3.43;;
2712;SDS011;1366;47.988;7.856;2022-10-16T17:57:47;4.70;;;4.20;;
2712;SDS011;1366;47.988;7.856;2022-10-16T18:00:13;6.10;;;4.13;;
2712;SDS011;1366;47.988;7.856;2022-10-16T18:02:39;6.70;;;3.93;;
2712;SDS011;1366;47.988;7.856;2022-10-16T18:05:07;4.83;;;3.73;;
2712;SDS011;1366;47.988;7.856;2022-10-16T18:07:33;4.30;;;3.90;;
2712;SDS011;1366;47.988;7.856;2022-10-16T18:09:59;3.80;;;3.50;;
2712;SDS011;1366;47.988;7.856;2022-10-16T18:12:28;7.87;;;4.57;;
2712;SDS011;1366;47.988;7.856;2022-10-16T18:14:54;10.10;;;4.73;;
2712;SDS011;1366;47.988;7.856;2022-10-16T18:17:22;11.70;;;4.43;;
2712;SDS011;1366;47.988;7.856;2022-10-16T18:19:48;5.17;;;4.77;;
2712;SDS011;1366;47.988;7.856;2022-10-16T18:22:14;4.90;;;4.37;;
2712;SDS011;1366;47.988;7.856;2022-10-16T18:24:40;5.17;;;4.23;;
2712;SDS011;1366;47.988;7.856;2022-10-16T18:27:07;5.07;;;4.13;;
2712;SDS011;1366;47.988;7.856;2022-10-16T18:29:33;5.03;;;3.80;;
2712;SDS011;1366;47.988;7.856;2022-10-16T18:31:59;6.50;;;4.80;;
2712;SDS011;1366;47.988;7.856;2022-10-16T18:34:25;5.40;;;4.50;;
2712;SDS011;1366;47.988;7.856;2022-10-16T18:36:52;6.53;;;4.00;;
2712;SDS011;1366;47.988;7.856;2022-10-16T18:39:19;6.10;;;4.30;;
2712;SDS011;1366;47.988;7.856;2022-10-16T18:41:47;8.57;;;4.63;;
2712;SDS011;1366;47.988;7.856;2022-10-16T18:44:15;5.03;;;3.80;;
2712;SDS011;1366;47.988;7.856;2022-10-16T18:46:42;7.13;;;4.37;;
2712;SDS011;1366;47.988;7.856;2022-10-16T18:49:08;5.80;;;4.23;;
2712;SDS011;1366;47.988;7.856;2022-10-16T18:51:35;4.60;;;4.23;;
2712;SDS011;1366;47.988;7.856;2022-10-16T18:54:09;4.10;;;3.90;;
2712;SDS011;1366;47.988;7.856;2022-10-16T18:56:35;5.73;;;4.07;;
2712;SDS011;1366;47.988;7.856;2022-10-16T18:59:02;4.60;;;4.20;;
2712;SDS011;1366;47.988;7.856;2022-10-16T19:01:30;5.10;;;4.00;;
2712;SDS011;1366;47.988;7.856;2022-10-16T19:04:07;4.37;;;3.97;;
2712;SDS011;1366;47.988;7.856;2022-10-16T19:06:34;10.00;;;3.77;;
2712;SDS011;1366;47.988;7.856;2022-10-16T19:09:00;4.87;;;3.93;;
2712;SDS011;1366;47.988;7.856;2022-10-16T19:11:26;9.30;;;4.27;;
2712;SDS011;1366;47.988;7.856;2022-10-16T19:13:52;6.03;;;4.53;;
2712;SDS011;1366;47.988;7.856;2022-10-16T19:16:25;5.90;;;4.57;;
2712;SDS011;1366;47.988;7.856;2022-10-16T19:18:53;10.73;;;4.80;;
2712;SDS011;1366;47.988;7.856;2022-10-16T19:21:19;8.97;;;4.40;;
2712;SDS011;1366;47.988;7.856;2022-10-16T19:23:45;4.90;;;4.00;;
2712;SDS011;1366;47.988;7.856;2022-10-16T19:26:15;4.53;;;3.50;;
2712;SDS011;1366;47.988;7.856;2022-10-16T19:28:41;8.30;;;5.90;;
2712;SDS011;1366;47.988;7.856;2022-10-16T19:31:09;4.60;;;4.10;;
2712;SDS011;1366;47.988;7.856;2022-10-16T19:33:38;5.30;;;4.80;;
2712;SDS011;1366;47.988;7.856;2022-10-16T19:38:33;4.53;;;3.70;;
2712;SDS011;1366;47.988;7.856;2022-10-16T19:41:12;5.53;;;4.80;;
2712;SDS011;1366;47.988;7.856;2022-10-16T19:43:39;8.07;;;4.27;;
2712;SDS011;1366;47.988;7.856;2022-10-16T19:46:05;4.33;;;4.03;;
2712;SDS011;1366;47.988;7.856;2022-10-16T19:48:32;4.93;;;3.90;;
2712;SDS011;1366;47.988;7.856;2022-10-16T19:50:58;4.63;;;3.90;;
2712;SDS011;1366;47.988;7.856;2022-10-16T19:53:24;4.90;;;3.77;;
2712;SDS011;1366;47.988;7.856;2022-10-16T19:55:52;4.93;;;4.00;;
2712;SDS011;1366;47.988;7.856;2022-10-16T19:58:18;4.50;;;3.63;;
2712;SDS011;1366;47.988;7.856;2022-10-16T20:00:44;4.73;;;4.33;;
2712;SDS011;1366;47.988;7.856;2022-10-16T20:03:10;5.27;;;3.77;;
2712;SDS011;1366;47.988;7.856;2022-10-16T20:05:36;5.13;;;4.63;;
2712;SDS011;1366;47.988;7.856;2022-10-16T20:08:02;5.23;;;4.70;;
2712;SDS011;1366;47.988;7.856;2022-10-16T20:10:28;6.27;;;4.33;;
2712;SDS011;1366;47.988;7.856;2022-10-16T20:12:54;4.70;;;4.10;;
2712;SDS011;1366;47.988;7.856;2022-10-16T20:15:20;5.30;;;4.20;;
2712;SDS011;1366;47.988;7.856;2022-10-16T20:17:46;4.30;;;3.90;;
2712;SDS011;1366;47.988;7.856;2022-10-16T20:20:13;7.77;;;3.83;;
2712;SDS011;1366;47.988;7.856;2022-10-16T20:22:39;4.30;;;3.90;;
2712;SDS011;1366;47.988;7.856;2022-10-16T20:25:05;4.40;;;4.00;;
2712;SDS011;1366;47.988;7.856;2022-10-16T20:27:31;5.73;;;3.90;;
2712;SDS011;1366;47.988;7.856;2022-10-16T20:29:57;4.37;;;3.67;;
2712;SDS011;1366;47.988;7.856;2022-10-16T20:32:23;4.00;;;3.70;;
2712;SDS011;1366;47.988;7.856;2022-10-16T20:34:49;3.80;;;3.50;;
2712;SDS011;1366;47.988;7.856;2022-10-16T20:37:15;7.23;;;4.00;;
2712;SDS011;1366;47.988;7.856;2022-10-16T20:39:41;4.30;;;3.70;;
2712;SDS011;1366;47.988;7.856;2022-10-16T20:42:08;4.87;;;3.67;;
2712;SDS011;1366;47.988;7.856;2022-10-16T20:44:34;3.87;;;3.47;;
2712;SDS011;1366;47.988;7.856;2022-10-16T20:47:00;4.10;;;3.70;;
2712;SDS011;1366;47.988;7.856;2022-10-16T20:49:26;5.10;;;3.50;;
2712;SDS011;1366;47.988;7.856;2022-10-16T20:51:55;4.93;;;4.00;;
2712;SDS011;1366;47.988;7.856;2022-10-16T20:54:21;9.83;;;4.77;;
2712;SDS011;1366;47.988;7.856;2022-10-16T20:56:47;4.17;;;3.80;;
2712;SDS011;1366;47.988;7.856;2022-10-16T20:59:13;4.90;;;3.77;;
2712;SDS011;1366;47.988;7.856;2022-10-16T21:01:40;3.77;;;3.40;;
2712;SDS011;1366;47.988;7.856;2022-10-16T21:04:07;4.40;;;4.00;;